createdAt,value
2016-08-10T00:00:27.235Z,0
2016-08-10T00:01:27.887Z,0
2016-08-10T00:02:27.167Z,0
2016-08-10T00:03:27.129Z,0
2016-08-10T00:04:27.090Z,0
2016-08-10T00:05:27.064Z,0
2016-08-10T00:06:27.736Z,0
2016-08-10T00:08:25.570Z,0
2016-08-10T00:09:27.632Z,0
2016-08-10T00:10:26.894Z,0
2016-08-10T00:11:26.853Z,0
2016-08-10T00:12:27.521Z,0
2016-08-10T00:13:26.096Z,0
2016-08-10T00:14:26.760Z,0
2016-08-10T00:15:27.447Z,0
2016-08-10T00:16:27.388Z,0
2016-08-10T00:17:27.352Z,0
2016-08-10T00:18:26.631Z,0
2016-08-10T00:19:27.284Z,0
2016-08-10T00:20:27.272Z,0
2016-08-10T00:21:26.530Z,0
2016-08-10T00:23:26.461Z,0
2016-08-10T00:24:26.429Z,0
2016-08-10T00:25:27.098Z,0
2016-08-10T00:26:26.357Z,0
2016-08-10T00:27:27.021Z,0
2016-08-10T00:28:26.301Z,0
2016-08-10T00:29:26.272Z,0
2016-08-10T00:30:26.222Z,0
2016-08-10T00:31:25.501Z,0
2016-08-10T00:32:26.857Z,0
2016-08-10T00:33:26.124Z,0
2016-08-10T00:34:26.787Z,0
2016-08-10T00:35:25.365Z,0
2016-08-10T00:36:26.059Z,0
2016-08-10T00:37:25.300Z,0
2016-08-10T00:38:26.656Z,0
2016-08-10T00:39:26.622Z,0
2016-08-10T00:40:26.595Z,0
2016-08-10T00:41:26.559Z,0
2016-08-10T00:42:26.528Z,0
2016-08-10T00:43:26.493Z,0
2016-08-10T00:44:25.755Z,0
2016-08-10T00:45:25.722Z,0
2016-08-10T00:46:26.403Z,0
2016-08-10T00:47:26.363Z,0
2016-08-10T00:48:24.234Z,0
2016-08-10T00:49:25.589Z,0
2016-08-10T00:50:24.865Z,0
2016-08-10T00:51:25.525Z,0
2016-08-10T00:52:24.819Z,0
2016-08-10T00:53:25.480Z,0
2016-08-10T00:54:24.740Z,0
2016-08-10T00:55:26.094Z,0
2016-08-10T00:56:26.058Z,0
2016-08-10T00:57:25.334Z,0
2016-08-10T00:58:24.601Z,0
2016-08-10T00:59:25.262Z,0
2016-08-10T01:00:25.922Z,0
2016-08-10T01:01:25.891Z,0
2016-08-10T01:02:25.176Z,0
2016-08-10T01:03:24.436Z,0
2016-08-10T01:04:25.101Z,0
2016-08-10T01:05:25.061Z,0
2016-08-10T01:06:25.732Z,0
2016-08-10T01:07:24.991Z,0
2016-08-10T01:08:25.658Z,0
2016-08-10T01:09:25.642Z,0
2016-08-10T01:10:24.198Z,0
2016-08-10T01:11:25.557Z,0
2016-08-10T01:12:24.827Z,0
2016-08-10T01:13:25.491Z,0
2016-08-10T01:14:24.765Z,0
2016-08-10T01:15:24.040Z,0
2016-08-10T01:16:23.996Z,0
2016-08-10T01:17:25.358Z,0
2016-08-10T01:18:24.638Z,0
2016-08-10T01:19:24.597Z,0
2016-08-10T01:20:25.262Z,0
2016-08-10T01:21:23.835Z,0
2016-08-10T01:22:24.495Z,0
2016-08-10T01:23:23.094Z,0
2016-08-10T01:24:24.427Z,0
2016-08-10T01:25:24.396Z,0
2016-08-10T01:26:24.360Z,0
2016-08-10T01:27:24.326Z,0
2016-08-10T01:28:24.296Z,0
2016-08-10T01:29:23.562Z,0
2016-08-10T01:30:24.428Z,0
2016-08-10T01:31:24.891Z,0
2016-08-10T01:32:24.171Z,0
2016-08-10T01:33:23.431Z,0
2016-08-10T01:34:24.089Z,0
2016-08-10T01:35:24.069Z,0
2016-08-10T01:36:24.731Z,0
2016-08-10T01:37:23.992Z,0
2016-08-10T01:38:23.961Z,0
2016-08-10T01:39:23.942Z,0
2016-08-10T01:40:23.896Z,0
2016-08-10T01:41:24.585Z,0
2016-08-10T01:42:23.849Z,0
2016-08-10T01:43:24.496Z,0
2016-08-10T01:44:24.467Z,0
2016-08-10T01:45:23.033Z,0
2016-08-10T01:46:23.704Z,0
2016-08-10T01:47:23.678Z,0
2016-08-10T01:48:24.325Z,0
2016-08-10T01:49:22.898Z,0
2016-08-10T01:50:23.573Z,0
2016-08-10T01:51:22.166Z,0
2016-08-10T01:52:23.496Z,0
2016-08-10T01:53:23.474Z,0
2016-08-10T01:54:22.736Z,0
2016-08-10T01:55:23.416Z,0
2016-08-10T01:56:23.378Z,0
2016-08-10T01:57:21.947Z,0
2016-08-10T01:58:23.315Z,0
2016-08-10T01:59:23.280Z,0
2016-08-10T02:00:23.933Z,0
2016-08-10T02:01:23.205Z,0
2016-08-10T02:02:23.865Z,0
2016-08-10T02:03:23.135Z,0
2016-08-10T02:04:23.103Z,0
2016-08-10T02:05:21.686Z,0
2016-08-10T02:06:23.036Z,0
2016-08-10T02:07:23.003Z,0
2016-08-10T02:08:22.983Z,0
2016-08-10T02:09:22.943Z,0
2016-08-10T02:10:22.910Z,0
2016-08-10T02:11:22.887Z,0
2016-08-10T02:12:22.859Z,0
2016-08-10T02:13:22.799Z,0
2016-08-10T02:14:22.780Z,0
2016-08-10T02:15:22.738Z,0
2016-08-10T02:16:23.415Z,0
2016-08-10T02:17:23.381Z,0
2016-08-10T02:18:23.341Z,0
2016-08-10T02:19:21.906Z,0
2016-08-10T02:20:22.572Z,0
2016-08-10T02:21:21.849Z,0
2016-08-10T02:22:22.524Z,0
2016-08-10T02:23:21.778Z,0
2016-08-10T02:24:22.437Z,0
2016-08-10T02:25:21.718Z,0
2016-08-10T02:26:22.378Z,0
2016-08-10T02:27:23.042Z,0
2016-08-10T02:28:21.612Z,0
2016-08-10T02:29:22.274Z,0
2016-08-10T02:30:21.601Z,0
2016-08-10T02:31:22.212Z,0
2016-08-10T02:32:22.175Z,0
2016-08-10T02:33:22.847Z,0
2016-08-10T02:34:22.120Z,0
2016-08-10T02:35:22.789Z,0
2016-08-10T02:36:22.054Z,0
2016-08-10T02:37:22.713Z,0
2016-08-10T02:39:21.962Z,0
2016-08-10T02:40:21.915Z,0
2016-08-10T02:41:21.881Z,0
2016-08-10T02:42:22.566Z,0
2016-08-10T02:43:22.514Z,0
2016-08-10T02:44:21.790Z,0
2016-08-10T02:45:22.444Z,0
2016-08-10T02:46:22.417Z,0
2016-08-10T02:47:22.386Z,0
2016-08-10T02:48:22.348Z,0
2016-08-10T02:49:20.224Z,0
2016-08-10T02:50:20.885Z,0
2016-08-10T02:51:22.266Z,0
2016-08-10T02:52:22.221Z,0
2016-08-10T02:54:21.449Z,0
2016-08-10T02:55:22.123Z,0
2016-08-10T02:56:22.077Z,0
2016-08-10T02:57:21.367Z,0
2016-08-10T02:58:22.021Z,0
2016-08-10T02:59:19.894Z,0
2016-08-10T03:00:21.251Z,0
2016-08-10T03:01:21.231Z,0
2016-08-10T03:02:21.894Z,0
2016-08-10T03:03:21.867Z,0
2016-08-10T03:04:21.123Z,0
2016-08-10T03:05:21.793Z,0
2016-08-10T03:06:21.759Z,0
2016-08-10T03:07:20.326Z,0
2016-08-10T03:09:21.671Z,0
2016-08-10T03:10:21.619Z,0
2016-08-10T03:11:21.591Z,0
2016-08-10T03:12:20.161Z,0
2016-08-10T03:13:20.825Z,0
2016-08-10T03:14:20.799Z,0
2016-08-10T03:15:21.452Z,0
2016-08-10T03:16:20.721Z,0
2016-08-10T03:17:20.690Z,0
2016-08-10T03:18:21.360Z,0
2016-08-10T03:19:21.322Z,0
2016-08-10T03:20:20.600Z,0
2016-08-10T03:21:21.257Z,0
2016-08-10T03:22:20.534Z,0
2016-08-10T03:24:21.163Z,0
2016-08-10T03:25:20.436Z,0
2016-08-10T03:26:21.095Z,0
2016-08-10T03:27:21.060Z,0
2016-08-10T03:28:21.024Z,0
2016-08-10T03:29:20.988Z,0
2016-08-10T03:30:21.458Z,0
2016-08-10T03:31:19.536Z,0
2016-08-10T03:32:20.198Z,0
2016-08-10T03:33:20.864Z,0
2016-08-10T03:34:20.828Z,0
2016-08-10T03:35:20.791Z,0
2016-08-10T03:36:20.767Z,0
2016-08-10T03:37:20.034Z,0
2016-08-10T03:39:20.662Z,0
2016-08-10T03:40:20.632Z,0
2016-08-10T03:41:19.900Z,0
2016-08-10T03:42:19.866Z,0
2016-08-10T03:43:19.847Z,0
2016-08-10T03:44:19.800Z,0
2016-08-10T03:45:19.078Z,0
2016-08-10T03:46:19.741Z,0
2016-08-10T03:47:20.403Z,0
2016-08-10T03:48:20.360Z,0
2016-08-10T03:49:19.636Z,0
2016-08-10T03:50:20.303Z,0
2016-08-10T03:51:20.265Z,0
2016-08-10T03:52:20.231Z,0
2016-08-10T03:54:18.774Z,0
2016-08-10T03:55:19.438Z,0
2016-08-10T03:56:19.395Z,0
2016-08-10T03:57:19.369Z,0
2016-08-10T03:58:20.037Z,0
2016-08-10T03:59:17.908Z,0
2016-08-10T04:00:19.977Z,0
2016-08-10T04:01:19.246Z,0
2016-08-10T04:02:19.908Z,0
2016-08-10T04:03:19.875Z,0
2016-08-10T04:04:19.142Z,0
2016-08-10T04:05:19.822Z,0
2016-08-10T04:06:19.776Z,0
2016-08-10T04:07:19.042Z,0
2016-08-10T04:09:18.975Z,0
2016-08-10T04:10:18.247Z,0
2016-08-10T04:11:19.605Z,0
2016-08-10T04:12:19.571Z,0
2016-08-10T04:13:18.147Z,0
2016-08-10T04:14:18.812Z,0
2016-08-10T04:15:18.773Z,0
2016-08-10T04:16:19.445Z,5
2016-08-10T04:17:18.707Z,5
2016-08-10T04:18:18.675Z,5
2016-08-10T04:19:19.338Z,5
2016-08-10T04:20:17.218Z,5
2016-08-10T04:21:19.279Z,5
2016-08-10T04:22:18.553Z,5
2016-08-10T04:23:17.825Z,5
2016-08-10T04:24:19.187Z,5
2016-08-10T04:25:18.446Z,5
2016-08-10T04:26:19.105Z,5
2016-08-10T04:27:18.382Z,5
2016-08-10T04:28:19.043Z,5
2016-08-10T04:29:19.018Z,10
2016-08-10T04:30:18.284Z,10
2016-08-10T04:31:18.938Z,10
2016-08-10T04:32:16.838Z,10
2016-08-10T04:33:18.875Z,5
2016-08-10T04:34:18.155Z,5
2016-08-10T04:35:18.113Z,10
2016-08-10T04:36:18.775Z,10
2016-08-10T04:37:18.740Z,15
2016-08-10T04:38:17.326Z,15
2016-08-10T04:39:17.973Z,20
2016-08-10T04:40:17.943Z,20
2016-08-10T04:41:17.917Z,15
2016-08-10T04:42:17.875Z,15
2016-08-10T04:43:17.844Z,15
2016-08-10T04:44:17.828Z,15
2016-08-10T04:45:17.087Z,15
2016-08-10T04:46:17.759Z,15
2016-08-10T04:47:18.423Z,20
2016-08-10T04:48:18.378Z,20
2016-08-10T04:49:18.344Z,20
2016-08-10T04:50:18.311Z,25
2016-08-10T04:51:16.186Z,25
2016-08-10T04:52:17.547Z,30
2016-08-10T04:53:18.224Z,30
2016-08-10T04:54:18.178Z,30
2016-08-10T04:55:17.454Z,30
2016-08-10T04:56:18.112Z,30
2016-08-10T04:57:18.078Z,30
2016-08-10T04:58:17.352Z,30
2016-08-10T04:59:16.632Z,30
2016-08-10T05:00:17.980Z,30
2016-08-10T05:01:17.248Z,30
2016-08-10T05:02:17.921Z,35
2016-08-10T05:03:17.881Z,35
2016-08-10T05:04:17.165Z,45
2016-08-10T05:05:17.128Z,50
2016-08-10T05:06:16.417Z,55
2016-08-10T05:07:17.761Z,60
2016-08-10T05:08:17.721Z,60
2016-08-10T05:09:16.980Z,60
2016-08-10T05:10:16.963Z,55
2016-08-10T05:11:16.921Z,50
2016-08-10T05:12:16.887Z,40
2016-08-10T05:13:17.562Z,35
2016-08-10T05:14:17.521Z,35
2016-08-10T05:15:17.486Z,35
2016-08-10T05:16:16.061Z,40
2016-08-10T05:17:16.729Z,40
2016-08-10T05:18:16.696Z,40
2016-08-10T05:19:16.662Z,40
2016-08-10T05:20:17.329Z,40
2016-08-10T05:21:16.598Z,40
2016-08-10T05:22:17.269Z,40
2016-08-10T05:23:16.532Z,40
2016-08-10T05:24:17.200Z,45
2016-08-10T05:25:16.491Z,45
2016-08-10T05:26:15.045Z,45
2016-08-10T05:27:16.406Z,50
2016-08-10T05:28:17.064Z,50
2016-08-10T05:29:16.334Z,55
2016-08-10T05:30:16.301Z,55
2016-08-10T05:31:16.964Z,50
2016-08-10T05:32:15.543Z,50
2016-08-10T05:33:16.911Z,45
2016-08-10T05:34:16.170Z,45
2016-08-10T05:35:16.836Z,40
2016-08-10T05:36:16.804Z,40
2016-08-10T05:37:16.088Z,40
2016-08-10T05:38:16.775Z,40
2016-08-10T05:39:16.017Z,40
2016-08-10T05:40:15.988Z,45
2016-08-10T05:41:16.644Z,45
2016-08-10T05:42:16.752Z,45
2016-08-10T05:43:15.879Z,45
2016-08-10T05:44:16.540Z,45
2016-08-10T05:45:16.514Z,45
2016-08-10T05:46:16.475Z,45
2016-08-10T05:47:16.443Z,45
2016-08-10T05:48:15.713Z,45
2016-08-10T05:49:15.680Z,50
2016-08-10T05:50:16.346Z,55
2016-08-10T05:51:16.329Z,65
2016-08-10T05:52:16.282Z,70
2016-08-10T05:53:15.554Z,75
2016-08-10T05:54:16.226Z,80
2016-08-10T05:55:15.484Z,85
2016-08-10T05:56:16.154Z,85
2016-08-10T05:57:16.119Z,90
2016-08-10T05:58:14.698Z,100
2016-08-10T05:59:15.358Z,105
2016-08-10T06:00:15.340Z,105
2016-08-10T06:01:15.303Z,110
2016-08-10T06:02:15.987Z,115
2016-08-10T06:03:15.230Z,120
2016-08-10T06:04:14.502Z,120
2016-08-10T06:05:15.162Z,120
2016-08-10T06:06:15.142Z,120
2016-08-10T06:07:15.104Z,125
2016-08-10T06:08:15.778Z,125
2016-08-10T06:09:15.037Z,120
2016-08-10T06:10:15.706Z,110
2016-08-10T06:11:14.968Z,100
2016-08-10T06:12:14.940Z,100
2016-08-10T06:13:15.610Z,100
2016-08-10T06:14:15.574Z,100
2016-08-10T06:15:15.541Z,100
2016-08-10T06:16:15.512Z,95
2016-08-10T06:17:15.490Z,95
2016-08-10T06:18:28.959Z,100
2016-08-10T06:19:14.730Z,105
2016-08-10T06:20:14.687Z,115
2016-08-10T06:21:14.651Z,125
2016-08-10T06:22:12.539Z,140
2016-08-10T06:23:13.198Z,155
2016-08-10T06:24:13.870Z,170
2016-08-10T06:25:13.830Z,175
2016-08-10T06:26:14.494Z,165
2016-08-10T06:27:14.485Z,165
2016-08-10T06:28:14.434Z,160
2016-08-10T06:29:15.101Z,155
2016-08-10T06:30:15.069Z,145
2016-08-10T06:31:14.339Z,145
2016-08-10T06:32:13.613Z,145
2016-08-10T06:33:14.970Z,145
2016-08-10T06:34:13.551Z,150
2016-08-10T06:35:14.228Z,160
2016-08-10T06:36:14.875Z,160
2016-08-10T06:37:14.849Z,165
2016-08-10T06:38:14.816Z,165
2016-08-10T06:40:14.753Z,170
2016-08-10T06:41:14.043Z,170
2016-08-10T06:42:13.295Z,170
2016-08-10T06:43:13.960Z,175
2016-08-10T06:44:13.929Z,175
2016-08-10T06:45:13.202Z,190
2016-08-10T06:46:14.578Z,195
2016-08-10T06:47:12.450Z,195
2016-08-10T06:48:14.513Z,180
2016-08-10T06:49:13.774Z,160
2016-08-10T06:50:14.448Z,150
2016-08-10T06:51:14.411Z,140
2016-08-10T06:52:14.390Z,135
2016-08-10T06:53:14.346Z,125
2016-08-10T06:55:13.585Z,125
2016-08-10T06:56:12.871Z,135
2016-08-10T06:57:13.523Z,135
2016-08-10T06:58:13.501Z,145
2016-08-10T06:59:13.463Z,155
2016-08-10T07:00:14.136Z,160
2016-08-10T07:01:13.401Z,170
2016-08-10T07:02:13.373Z,175
2016-08-10T07:03:13.356Z,165
2016-08-10T07:04:14.013Z,170
2016-08-10T07:05:13.975Z,155
2016-08-10T07:06:13.243Z,140
2016-08-10T07:07:13.911Z,130
2016-08-10T07:08:13.184Z,110
2016-08-10T07:09:13.852Z,100
2016-08-10T07:10:13.820Z,100
2016-08-10T07:11:13.807Z,95
2016-08-10T07:12:13.067Z,95
2016-08-10T07:13:12.342Z,100
2016-08-10T07:14:12.997Z,110
2016-08-10T07:15:12.990Z,120
2016-08-10T07:16:12.248Z,135
2016-08-10T07:17:13.679Z,155
2016-08-10T07:18:13.576Z,185
2016-08-10T07:19:13.538Z,205
2016-08-10T07:20:12.133Z,225
2016-08-10T07:21:13.483Z,220
2016-08-10T07:22:13.449Z,200
2016-08-10T07:23:12.725Z,185
2016-08-10T07:24:13.392Z,180
2016-08-10T07:25:12.669Z,175
2016-08-10T07:26:11.939Z,180
2016-08-10T07:27:12.610Z,190
2016-08-10T07:28:12.570Z,205
2016-08-10T07:29:11.844Z,210
2016-08-10T07:30:13.488Z,225
2016-08-10T07:31:13.175Z,240
2016-08-10T07:32:13.149Z,265
2016-08-10T07:33:12.413Z,270
2016-08-10T07:34:13.084Z,255
2016-08-10T07:35:13.057Z,250
2016-08-10T07:36:12.327Z,250
2016-08-10T07:37:12.291Z,255
2016-08-10T07:38:12.958Z,255
2016-08-10T07:39:12.244Z,235
2016-08-10T07:40:12.206Z,235
2016-08-10T07:41:12.176Z,235
2016-08-10T07:42:12.839Z,245
2016-08-10T07:43:11.413Z,255
2016-08-10T07:44:11.387Z,265
2016-08-10T07:45:12.058Z,275
2016-08-10T07:46:12.026Z,275
2016-08-10T07:47:11.998Z,285
2016-08-10T07:48:11.964Z,295
2016-08-10T07:49:11.236Z,290
2016-08-10T07:50:11.213Z,290
2016-08-10T07:51:12.578Z,275
2016-08-10T07:52:11.841Z,245
2016-08-10T07:53:11.121Z,230
2016-08-10T07:54:10.391Z,215
2016-08-10T07:55:12.447Z,205
2016-08-10T07:56:11.717Z,190
2016-08-10T07:57:10.303Z,180
2016-08-10T07:58:12.354Z,180
2016-08-10T07:59:11.640Z,180
2016-08-10T08:00:11.597Z,180
2016-08-10T08:01:12.277Z,170
2016-08-10T08:02:11.534Z,160
2016-08-10T08:03:11.505Z,150
2016-08-10T08:04:12.174Z,155
2016-08-10T08:05:12.151Z,165
2016-08-10T08:06:12.123Z,160
2016-08-10T08:07:12.085Z,145
2016-08-10T08:08:12.054Z,130
2016-08-10T08:09:11.329Z,125
2016-08-10T08:10:11.313Z,125
2016-08-10T08:11:11.976Z,135
2016-08-10T08:12:11.947Z,150
2016-08-10T08:13:11.903Z,165
2016-08-10T08:14:11.173Z,185
2016-08-10T08:15:11.846Z,210
2016-08-10T08:16:10.424Z,220
2016-08-10T08:17:10.386Z,225
2016-08-10T08:18:10.363Z,220
2016-08-10T08:19:10.333Z,230
2016-08-10T08:20:10.994Z,260
2016-08-10T08:21:10.270Z,300
2016-08-10T08:22:10.260Z,350
2016-08-10T08:23:11.601Z,395
2016-08-10T08:24:10.878Z,445
2016-08-10T08:25:11.545Z,500
2016-08-10T08:26:10.837Z,655
2016-08-10T08:27:11.480Z,790
2016-08-10T08:28:11.459Z,720
2016-08-10T08:29:10.725Z,1255
2016-08-10T08:30:09.997Z,1295
2016-08-10T08:31:11.367Z,1035
2016-08-10T08:32:11.338Z,1395
2016-08-10T08:33:09.915Z,1645
2016-08-10T08:34:11.274Z,1685
2016-08-10T08:35:10.557Z,2020
2016-08-10T08:36:11.228Z,1990
2016-08-10T08:37:10.507Z,1865
2016-08-10T08:38:11.187Z,1690
2016-08-10T08:39:11.137Z,1705
2016-08-10T08:40:10.424Z,1690
2016-08-10T08:41:09.705Z,1290
2016-08-10T08:42:11.078Z,1090
2016-08-10T08:43:10.364Z,785
2016-08-10T08:44:11.022Z,765
2016-08-10T08:45:11.010Z,765
2016-08-10T08:46:10.301Z,765
2016-08-10T08:47:10.257Z,860
2016-08-10T08:48:10.949Z,1045
2016-08-10T08:49:10.906Z,2085
2016-08-10T08:50:10.885Z,970
2016-08-10T08:51:10.857Z,1790
2016-08-10T08:52:09.447Z,1045
2016-08-10T08:53:10.117Z,800
2016-08-10T08:54:10.097Z,570
2016-08-10T08:55:10.078Z,435
2016-08-10T08:56:10.051Z,330
2016-08-10T08:57:09.333Z,270
2016-08-10T08:58:10.006Z,225
2016-08-10T08:59:09.994Z,195
2016-08-10T09:00:10.653Z,180
2016-08-10T09:01:09.242Z,175
2016-08-10T09:02:09.921Z,165
2016-08-10T09:03:09.893Z,160
2016-08-10T09:04:09.176Z,155
2016-08-10T09:05:09.154Z,155
2016-08-10T09:06:10.531Z,160
2016-08-10T09:07:10.488Z,160
2016-08-10T09:08:10.477Z,160
2016-08-10T09:09:09.055Z,160
2016-08-10T09:10:09.726Z,170
2016-08-10T09:11:10.392Z,165
2016-08-10T09:12:08.979Z,165
2016-08-10T09:13:09.645Z,170
2016-08-10T09:14:10.317Z,180
2016-08-10T09:15:10.311Z,180
2016-08-10T09:16:08.177Z,195
2016-08-10T09:17:10.241Z,195
2016-08-10T09:18:10.218Z,200
2016-08-10T09:19:10.186Z,205
2016-08-10T09:20:08.068Z,210
2016-08-10T09:21:07.346Z,210
2016-08-10T09:22:08.713Z,205
2016-08-10T09:23:08.685Z,205
2016-08-10T09:24:09.356Z,210
2016-08-10T09:25:10.032Z,220
2016-08-10T09:26:09.310Z,245
2016-08-10T09:27:09.976Z,305
2016-08-10T09:28:09.939Z,360
2016-08-10T09:29:09.219Z,390
2016-08-10T09:30:08.489Z,400
2016-08-10T09:31:09.870Z,440
2016-08-10T09:32:08.432Z,470
2016-08-10T09:33:09.818Z,475
2016-08-10T09:34:09.071Z,410
2016-08-10T09:35:09.746Z,330
2016-08-10T09:36:09.027Z,275
2016-08-10T09:37:09.689Z,240
2016-08-10T09:38:07.575Z,210
2016-08-10T09:39:08.941Z,190
2016-08-10T09:40:09.619Z,175
2016-08-10T09:41:09.584Z,175
2016-08-10T09:42:08.861Z,180
2016-08-10T09:43:08.826Z,185
2016-08-10T09:44:09.500Z,200
2016-08-10T09:45:08.769Z,225
2016-08-10T09:46:08.738Z,245
2016-08-10T09:47:08.713Z,270
2016-08-10T09:48:08.719Z,290
2016-08-10T09:49:09.356Z,315
2016-08-10T09:50:09.335Z,335
2016-08-10T09:51:08.601Z,370
2016-08-10T09:52:08.569Z,365
2016-08-10T09:53:08.546Z,375
2016-08-10T09:54:09.235Z,390
2016-08-10T09:55:09.184Z,380
2016-08-10T09:56:09.150Z,360
2016-08-10T09:57:09.144Z,345
2016-08-10T09:58:08.415Z,345
2016-08-10T09:59:07.001Z,355
2016-08-10T10:00:09.043Z,375
2016-08-10T10:01:09.018Z,375
2016-08-10T10:02:08.303Z,345
2016-08-10T10:03:08.959Z,325
2016-08-10T10:04:08.231Z,325
2016-08-10T10:05:08.925Z,315
2016-08-10T10:06:08.171Z,325
2016-08-10T10:07:08.153Z,320
2016-08-10T10:08:06.717Z,310
2016-08-10T10:09:08.084Z,305
2016-08-10T10:10:08.758Z,295
2016-08-10T10:11:08.034Z,285
2016-08-10T10:12:07.998Z,290
2016-08-10T10:13:07.974Z,295
2016-08-10T10:14:08.639Z,285
2016-08-10T10:15:07.923Z,275
2016-08-10T10:16:07.189Z,285
2016-08-10T10:17:06.460Z,285
2016-08-10T10:18:08.519Z,320
2016-08-10T10:19:08.496Z,355
2016-08-10T10:20:07.761Z,370
2016-08-10T10:21:08.433Z,340
2016-08-10T10:22:08.404Z,315
2016-08-10T10:23:08.379Z,305
2016-08-10T10:24:07.654Z,300
2016-08-10T10:25:07.858Z,295
2016-08-10T10:26:07.794Z,290
2016-08-10T10:27:06.167Z,295
2016-08-10T10:28:08.233Z,305
2016-08-10T10:29:07.516Z,315
2016-08-10T10:30:08.176Z,330
2016-08-10T10:31:07.450Z,325
2016-08-10T10:32:07.415Z,320
2016-08-10T10:33:08.077Z,355
2016-08-10T10:34:08.048Z,385
2016-08-10T10:35:08.030Z,380
2016-08-10T10:36:07.996Z,380
2016-08-10T10:37:07.978Z,400
2016-08-10T10:38:07.937Z,415
2016-08-10T10:39:07.227Z,425
2016-08-10T10:40:06.481Z,415
2016-08-10T10:41:07.841Z,400
2016-08-10T10:42:07.114Z,375
2016-08-10T10:43:07.784Z,345
2016-08-10T10:44:07.746Z,320
2016-08-10T10:45:07.024Z,300
2016-08-10T10:46:06.995Z,355
2016-08-10T10:47:07.665Z,475
2016-08-10T10:48:06.933Z,500
2016-08-10T10:49:06.914Z,310
2016-08-10T10:50:06.873Z,275
2016-08-10T10:51:07.543Z,335
2016-08-10T10:52:06.816Z,270
2016-08-10T10:53:06.788Z,255
2016-08-10T10:54:06.760Z,240
2016-08-10T10:55:04.861Z,235
2016-08-10T10:56:06.698Z,225
2016-08-10T10:57:06.684Z,215
2016-08-10T10:58:05.935Z,230
2016-08-10T10:59:06.607Z,270
2016-08-10T11:00:07.279Z,370
2016-08-10T11:01:05.158Z,2020
2016-08-10T11:02:06.515Z,505
2016-08-10T11:03:07.183Z,405
2016-08-10T11:04:07.159Z,405
2016-08-10T11:05:06.446Z,430
2016-08-10T11:06:07.093Z,415
2016-08-10T11:07:06.368Z,340
2016-08-10T11:08:06.332Z,240
2016-08-10T11:09:07.014Z,185
2016-08-10T11:10:05.129Z,145
2016-08-10T11:11:06.247Z,120
2016-08-10T11:12:06.917Z,105
2016-08-10T11:13:05.495Z,100
2016-08-10T11:14:06.850Z,95
2016-08-10T11:15:06.132Z,95
2016-08-10T11:16:06.791Z,100
2016-08-10T11:17:06.056Z,100
2016-08-10T11:18:05.346Z,110
2016-08-10T11:19:06.709Z,115
2016-08-10T11:20:05.970Z,120
2016-08-10T11:21:06.644Z,115
2016-08-10T11:22:05.918Z,100
2016-08-10T11:23:05.880Z,85
2016-08-10T11:24:05.847Z,75
2016-08-10T11:26:06.484Z,75
2016-08-10T11:27:05.762Z,80
2016-08-10T11:28:06.420Z,90
2016-08-10T11:29:04.999Z,90
2016-08-10T11:30:05.657Z,90
2016-08-10T11:31:04.240Z,90
2016-08-10T11:32:06.300Z,90
2016-08-10T11:33:05.572Z,85
2016-08-10T11:34:06.239Z,80
2016-08-10T11:35:05.500Z,75
2016-08-10T11:36:06.167Z,75
2016-08-10T11:37:05.436Z,75
2016-08-10T11:38:06.106Z,85
2016-08-10T11:39:06.071Z,105
2016-08-10T11:40:03.944Z,135
2016-08-10T11:41:05.321Z,140
2016-08-10T11:42:05.971Z,130
2016-08-10T11:43:05.972Z,135
2016-08-10T11:44:05.907Z,130
2016-08-10T11:45:05.189Z,130
2016-08-10T11:46:05.841Z,140
2016-08-10T11:47:04.420Z,145
2016-08-10T11:48:05.777Z,135
2016-08-10T11:49:05.744Z,125
2016-08-10T11:50:05.011Z,115
2016-08-10T11:51:04.284Z,105
2016-08-10T11:52:04.944Z,90
2016-08-10T11:53:05.603Z,85
2016-08-10T11:54:05.576Z,80
2016-08-10T11:55:04.851Z,75
2016-08-10T11:56:05.514Z,75
2016-08-10T11:57:04.783Z,70
2016-08-10T11:58:05.446Z,70
2016-08-10T11:59:05.409Z,65
2016-08-10T12:00:03.291Z,65
2016-08-10T12:01:04.650Z,65
2016-08-10T12:02:05.322Z,70
2016-08-10T12:03:05.283Z,80
2016-08-10T12:04:05.247Z,85
2016-08-10T12:05:03.819Z,90
2016-08-10T12:06:04.481Z,100
2016-08-10T12:07:05.145Z,110
2016-08-10T12:08:05.112Z,115
2016-08-10T12:09:05.075Z,130
2016-08-10T12:10:04.351Z,135
2016-08-10T12:11:04.307Z,145
2016-08-10T12:12:04.977Z,155
2016-08-10T12:13:04.246Z,160
2016-08-10T12:14:04.218Z,165
2016-08-10T12:15:04.176Z,165
2016-08-10T12:16:04.842Z,165
2016-08-10T12:17:03.433Z,170
2016-08-10T12:18:04.778Z,180
2016-08-10T12:19:04.769Z,180
2016-08-10T12:20:03.326Z,180
2016-08-10T12:21:03.988Z,180
2016-08-10T12:22:03.947Z,185
2016-08-10T12:23:04.607Z,180
2016-08-10T12:24:03.183Z,180
2016-08-10T12:25:04.544Z,170
2016-08-10T12:26:03.832Z,165
2016-08-10T12:27:03.783Z,165
2016-08-10T12:28:03.753Z,170
2016-08-10T12:29:04.415Z,180
2016-08-10T12:30:03.684Z,190
2016-08-10T12:31:03.647Z,195
2016-08-10T12:32:04.318Z,195
2016-08-10T12:33:04.282Z,195
2016-08-10T12:34:04.259Z,190
2016-08-10T12:35:04.212Z,195
2016-08-10T12:36:03.477Z,195
2016-08-10T12:37:02.756Z,205
2016-08-10T12:38:04.116Z,215
2016-08-10T12:39:01.997Z,225
2016-08-10T12:40:02.671Z,225
2016-08-10T12:41:04.027Z,225
2016-08-10T12:42:03.285Z,220
2016-08-10T12:43:02.562Z,215
2016-08-10T12:44:03.235Z,210
2016-08-10T12:45:03.893Z,200
2016-08-10T12:46:03.860Z,200
2016-08-10T12:47:03.124Z,195
2016-08-10T12:48:03.101Z,190
2016-08-10T12:49:02.357Z,185
2016-08-10T12:50:03.022Z,175
2016-08-10T12:51:03.691Z,165
2016-08-10T12:52:02.962Z,155
2016-08-10T12:53:03.639Z,145
2016-08-10T12:54:02.896Z,130
2016-08-10T12:55:02.861Z,120
2016-08-10T12:56:02.831Z,105
2016-08-10T12:57:02.800Z,95
2016-08-10T12:58:02.767Z,90
2016-08-10T12:59:03.428Z,90
2016-08-10T13:00:02.000Z,90
2016-08-10T13:01:03.357Z,95
2016-08-10T13:02:03.333Z,95
2016-08-10T13:03:01.904Z,105
2016-08-10T13:04:03.271Z,105
2016-08-10T13:05:03.237Z,110
2016-08-10T13:06:02.497Z,115
2016-08-10T13:07:02.468Z,115
2016-08-10T13:08:03.130Z,120
2016-08-10T13:09:02.412Z,115
2016-08-10T13:10:03.074Z,120
2016-08-10T13:11:02.334Z,125
2016-08-10T13:12:02.308Z,130
2016-08-10T13:13:02.283Z,135
2016-08-10T13:14:02.939Z,145
2016-08-10T13:15:02.902Z,165
2016-08-10T13:16:02.873Z,180
2016-08-10T13:17:02.136Z,190
2016-08-10T13:18:02.797Z,195
2016-08-10T13:19:02.770Z,200
2016-08-10T13:20:02.050Z,200
2016-08-10T13:21:02.706Z,200
2016-08-10T13:22:02.686Z,200
2016-08-10T13:23:02.638Z,200
2016-08-10T13:24:01.944Z,205
2016-08-10T13:25:01.893Z,215
2016-08-10T13:26:02.544Z,230
2016-08-10T13:27:01.809Z,260
2016-08-10T13:28:01.087Z,305
2016-08-10T13:29:02.445Z,345
2016-08-10T13:30:01.730Z,380
2016-08-10T13:31:00.292Z,360
2016-08-10T13:32:01.652Z,335
2016-08-10T13:33:00.926Z,290
2016-08-10T13:34:01.584Z,245
2016-08-10T13:35:02.257Z,215
2016-08-10T13:36:02.215Z,225
2016-08-10T13:37:02.185Z,240
2016-08-10T13:38:00.761Z,245
2016-08-10T13:39:00.748Z,225
2016-08-10T13:40:02.094Z,210
2016-08-10T13:41:00.665Z,195
2016-08-10T13:42:02.026Z,185
2016-08-10T13:43:01.303Z,170
2016-08-10T13:44:00.570Z,170
2016-08-10T13:45:01.931Z,170
2016-08-10T13:46:01.207Z,170
2016-08-10T13:47:01.873Z,170
2016-08-10T13:48:00.446Z,195
2016-08-10T13:49:00.411Z,210
2016-08-10T13:50:01.782Z,230
2016-08-10T13:51:01.048Z,230
2016-08-10T13:52:00.312Z,235
2016-08-10T13:53:00.286Z,250
2016-08-10T13:54:01.643Z,275
2016-08-10T13:55:00.915Z,285
2016-08-10T13:56:01.585Z,280
2016-08-10T13:57:01.547Z,285
2016-08-10T13:58:00.827Z,265
2016-08-10T13:59:00.788Z,260
2016-08-10T14:00:00.757Z,255
2016-08-10T14:01:00.733Z,235
2016-08-10T14:02:00.689Z,240
2016-08-10T14:03:00.667Z,240
2016-08-10T14:04:00.636Z,220
2016-08-10T14:05:01.289Z,220
2016-08-10T14:06:00.572Z,215
2016-08-10T14:06:59.841Z,200
2016-08-10T14:08:01.409Z,170
2016-08-10T14:09:01.164Z,170
2016-08-10T14:09:59.739Z,155
2016-08-10T14:11:01.110Z,160
2016-08-10T14:12:01.076Z,170
2016-08-10T14:13:01.039Z,180
2016-08-10T14:14:00.312Z,180
2016-08-10T14:15:00.997Z,175
2016-08-10T14:16:00.948Z,170
2016-08-10T14:17:00.244Z,180
2016-08-10T14:18:00.887Z,200
2016-08-10T14:19:00.864Z,220